Iemanja 2 — FGF3556 — position and weather

sailwx.info

Track history (hours):
 
Tides and Currents Weather Stations Pressure Air Temp Water Temp Dewpoint Dewpoint Depression Visibility Wind Speed Wind Dir Waves Ship Positions

Iemanja 2

Last reported at 2017-Sep-19 15:08 UTC. Time now 2017-Sep-21 07:09 UTC.
Position N 47°39' W 003°12'.

Length 14 m.

Type: Sailing vessel. MMSI: 227713130.

Date/timePositionNaut miles runAvg speedWind from/ knotsBaromVisibWave heightAir tempDewpointWater temp
2017-Sep-19 15:08N 47°39' W 003°12'0 0.0
2017-Sep-19 14:59N 47°39' W 003°12'0 0.0
2017-Sep-19 14:30N 47°39' W 003°12'2 3.6
2017-Sep-19 14:00N 47°38' W 003°14'3 5.4
2017-Sep-19 13:30N 47°39' W 003°18'3 5.1
2017-Sep-19 13:00N 47°40' W 003°21'2 4.6
2017-Sep-19 12:30N 47°42' W 003°22'1 2.5
2017-Sep-19 11:58N 47°43' W 003°21'0 0.0
2017-Sep-19 11:28N 47°43' W 003°21'0 0.0
2017-Sep-19 10:58N 47°43' W 003°21'0 0.0
2017-Sep-19 10:28N 47°43' W 003°21'0 0.0
2017-Sep-19 09:58N 47°43' W 003°21'0 0.0
2017-Sep-19 09:28N 47°43' W 003°21'0 0.0
2017-Sep-19 08:58N 47°43' W 003°21'0 0.0
2017-Sep-19 08:28N 47°43' W 003°21'0 0.0
2017-Sep-19 07:58N 47°43' W 003°21'1 1.3
2017-Sep-19 07:30N 47°43' W 003°22'0 0.1
2017-Sep-19 07:00N 47°43' W 003°22'1 2.5
2017-Sep-19 06:30N 47°42' W 003°22'2 3.9
2017-Sep-19 06:00N 47°41' W 003°25'58 4.6
2017-Sep-18 17:18N 48°02' W 004°46'2 6.8
2017-Sep-18 16:59N 48°03' W 004°48'3 5.7
2017-Sep-18 16:30N 48°06' W 004°49'3 6.3
2017-Sep-18 16:00N 48°09' W 004°49'3 6.1
2017-Sep-18 15:30N 48°12' W 004°48'3 5.8
2017-Sep-18 14:58N 48°15' W 004°49'5 5.1
2017-Sep-18 13:58N 48°20' W 004°49'4 3.7
2017-Sep-18 12:53N 48°24' W 004°50'2 3.2
2017-Sep-18 12:20N 48°26' W 004°50'2 3.7
2017-Sep-18 11:49N 48°28' W 004°49'1 3.5
2017-Sep-18 11:29N 48°29' W 004°49'2 3.5
2017-Sep-18 11:00N 48°31' W 004°49'2 3.2
2017-Sep-18 10:30N 48°33' W 004°49'137 5.5
2017-Sep-17 09:39N 49°45' W 001°51'2 8.7
2017-Sep-17 09:24N 49°45' W 001°47'3 8.2
2017-Sep-17 09:00N 49°45' W 001°42'4 7.6
2017-Sep-17 08:30N 49°46' W 001°36'3 6.8
2017-Sep-17 08:00N 49°46' W 001°31'3 5.9
2017-Sep-17 07:30N 49°46' W 001°27'2 4.7
2017-Sep-17 07:00N 49°45' W 001°23'2 4.4
2017-Sep-17 06:29N 49°45' W 001°20'  
Track history (hours):
 
Tides and Currents Weather Stations Pressure Air Temp Water Temp Dewpoint Dewpoint Depression Visibility Wind Speed Wind Dir Waves Ship Positions

Iemanja 2

Last reported at 2017-Sep-19 15:08 UTC. Time now 2017-Sep-21 07:09 UTC.
Position N 47°39' W 003°12'.

Length 14 m.

Type: Sailing vessel. MMSI: 227713130.

Date/timePositionNaut miles runAvg speedWind from/ knotsBaromVisibWave heightAir tempDewpointWater temp
2017-Sep-19 15:08N 47°39' W 003°12'0 0.0
2017-Sep-19 14:59N 47°39' W 003°12'0 0.0
2017-Sep-19 14:30N 47°39' W 003°12'2 3.6
2017-Sep-19 14:00N 47°38' W 003°14'3 5.4
2017-Sep-19 13:30N 47°39' W 003°18'3 5.1
2017-Sep-19 13:00N 47°40' W 003°21'2 4.6
2017-Sep-19 12:30N 47°42' W 003°22'1 2.5
2017-Sep-19 11:58N 47°43' W 003°21'0 0.0
2017-Sep-19 11:28N 47°43' W 003°21'0 0.0
2017-Sep-19 10:58N 47°43' W 003°21'0 0.0
2017-Sep-19 10:28N 47°43' W 003°21'0 0.0
2017-Sep-19 09:58N 47°43' W 003°21'0 0.0
2017-Sep-19 09:28N 47°43' W 003°21'0 0.0
2017-Sep-19 08:58N 47°43' W 003°21'0 0.0
2017-Sep-19 08:28N 47°43' W 003°21'0 0.0
2017-Sep-19 07:58N 47°43' W 003°21'1 1.3
2017-Sep-19 07:30N 47°43' W 003°22'0 0.1
2017-Sep-19 07:00N 47°43' W 003°22'1 2.5
2017-Sep-19 06:30N 47°42' W 003°22'2 3.9
2017-Sep-19 06:00N 47°41' W 003°25'58 4.6
2017-Sep-18 17:18N 48°02' W 004°46'2 6.8
2017-Sep-18 16:59N 48°03' W 004°48'3 5.7
2017-Sep-18 16:30N 48°06' W 004°49'3 6.3
2017-Sep-18 16:00N 48°09' W 004°49'3 6.1
2017-Sep-18 15:30N 48°12' W 004°48'3 5.8
2017-Sep-18 14:58N 48°15' W 004°49'5 5.1
2017-Sep-18 13:58N 48°20' W 004°49'4 3.7
2017-Sep-18 12:53N 48°24' W 004°50'2 3.2
2017-Sep-18 12:20N 48°26' W 004°50'2 3.7
2017-Sep-18 11:49N 48°28' W 004°49'1 3.5
2017-Sep-18 11:29N 48°29' W 004°49'2 3.5
2017-Sep-18 11:00N 48°31' W 004°49'2 3.2
2017-Sep-18 10:30N 48°33' W 004°49'137 5.5
2017-Sep-17 09:39N 49°45' W 001°51'2 8.7
2017-Sep-17 09:24N 49°45' W 001°47'3 8.2
2017-Sep-17 09:00N 49°45' W 001°42'4 7.6
2017-Sep-17 08:30N 49°46' W 001°36'3 6.8
2017-Sep-17 08:00N 49°46' W 001°31'3 5.9
2017-Sep-17 07:30N 49°46' W 001°27'2 4.7
2017-Sep-17 07:00N 49°45' W 001°23'2 4.4
2017-Sep-17 06:29N 49°45' W 001°20'  

Dump ship's entire track history